GMFM

Bassatine Airport

Meknes, Morocco
METAR GMFM 231600Z 29004KT 9999 FEW020 16/07 Q1002 NOSIG
Observed Flight Rules
Feb-23 @ 16:00 UTC (41 minutes ago) Visual Flight Rules
Wind Visibility Clouds
290° at 4 knots 10,000+ meters
  • Few at 2,000' AGL
Temperatures Readings
Current 16°C / 61°F
Dewpoint 7°C / 45°F
Humidity 55%
Altimeter 29.59" Hg
Pressure 1002 hPa
Elevation 549
METAR GMFM 231600Z 29004KT 9999 FEW020 16/07 Q1002 NOSIG
Observed Flight Rules
Feb-23 @ 16:00 UTC
(41 minutes ago)
VFR
Wind Visibility
290° at 4 knots 10,000+ meters
Clouds
  • Few at 2,000' AGL
Temperature Dewpoint
16°C / 61°F 7°C / 45°F
Humidity Altimeter Pressure
55% 29.59" Hg 1002 hPa